createdAt,value
2023-05-17T00:00:40.546Z,6.50
2023-05-17T00:01:40.553Z,7.20
2023-05-17T00:02:40.572Z,8.60
2023-05-17T00:03:40.575Z,7.80
2023-05-17T00:04:40.547Z,6.10
2023-05-17T00:05:40.517Z,8.80
2023-05-17T00:06:40.500Z,8.40
2023-05-17T00:07:40.498Z,9.10
2023-05-17T00:08:40.586Z,8.50
2023-05-17T00:09:40.462Z,9.60
2023-05-17T00:10:40.622Z,10.30
2023-05-17T00:11:40.420Z,6.70
2023-05-17T00:12:40.400Z,6.50
2023-05-17T00:13:40.413Z,9.40
2023-05-17T00:14:40.380Z,8.40
2023-05-17T00:15:40.639Z,7.40
2023-05-17T00:16:40.641Z,8.90
2023-05-17T00:17:40.398Z,9.80
2023-05-17T00:18:40.425Z,7.60
2023-05-17T00:19:40.377Z,7.50
2023-05-17T00:20:40.317Z,9.50
2023-05-17T00:21:41.194Z,8.60
2023-05-17T00:22:40.580Z,7.20
2023-05-17T00:23:40.286Z,7.20
2023-05-17T00:24:40.290Z,10.70
2023-05-17T00:25:40.292Z,7.90
2023-05-17T00:26:40.232Z,6.80
2023-05-17T00:27:40.419Z,7.30
2023-05-17T00:28:40.223Z,8.90
2023-05-17T00:29:40.228Z,6.50
2023-05-17T00:30:40.236Z,6.00
2023-05-17T00:31:40.245Z,7.70
2023-05-17T00:32:40.271Z,8.50
2023-05-17T00:33:40.178Z,7.30
2023-05-17T00:34:40.191Z,7.00
2023-05-17T00:35:40.149Z,7.10
2023-05-17T00:36:40.144Z,6.80
2023-05-17T00:37:40.175Z,9.60
2023-05-17T00:38:40.102Z,8.60
2023-05-17T00:39:40.215Z,7.10
2023-05-17T00:40:40.192Z,9.20
2023-05-17T00:41:40.221Z,9.20
2023-05-17T00:42:40.166Z,7.10
2023-05-17T00:43:40.162Z,9.60
2023-05-17T00:44:40.218Z,7.10
2023-05-17T00:45:40.267Z,7.20
2023-05-17T00:46:40.200Z,7.20
2023-05-17T00:47:40.281Z,6.50
2023-05-17T00:48:40.441Z,7.20
2023-05-17T00:49:40.281Z,5.00
2023-05-17T00:50:40.065Z,6.20
2023-05-17T00:51:40.153Z,7.10
2023-05-17T00:52:40.190Z,8.10
2023-05-17T00:53:39.980Z,8.20
2023-05-17T00:54:40.048Z,6.30
2023-05-17T00:55:39.914Z,6.40
2023-05-17T00:56:39.968Z,6.30
2023-05-17T00:57:39.891Z,6.80
2023-05-17T00:58:39.977Z,7.40
2023-05-17T00:59:40.236Z,7.30
2023-05-17T01:00:40.006Z,6.50
2023-05-17T01:01:39.871Z,7.60
2023-05-17T01:02:39.943Z,6.70
2023-05-17T01:03:39.896Z,6.60
2023-05-17T01:04:39.865Z,5.00
2023-05-17T01:05:40.043Z,7.40
2023-05-17T01:06:39.827Z,6.70
2023-05-17T01:07:39.772Z,7.80
2023-05-17T01:08:39.827Z,6.10
2023-05-17T01:09:40.021Z,7.40
2023-05-17T01:10:40.048Z,6.90
2023-05-17T01:11:40.205Z,9.00
2023-05-17T01:12:39.734Z,7.90
2023-05-17T01:13:39.742Z,7.60
2023-05-17T01:14:39.725Z,9.30
2023-05-17T01:15:39.701Z,6.50
2023-05-17T01:16:39.773Z,7.60
2023-05-17T01:17:39.753Z,7.60
2023-05-17T01:18:40.033Z,9.10
2023-05-17T01:19:39.720Z,8.30
2023-05-17T01:20:39.744Z,9.10
2023-05-17T01:21:39.637Z,10.80
2023-05-17T01:22:39.656Z,9.00
2023-05-17T01:23:39.637Z,7.10
2023-05-17T01:24:39.604Z,7.90
2023-05-17T01:25:39.607Z,7.80
2023-05-17T01:26:39.580Z,9.10
2023-05-17T01:27:39.564Z,7.40
2023-05-17T01:28:39.586Z,7.70
2023-05-17T01:29:40.399Z,8.30
2023-05-17T01:30:39.548Z,10.70
2023-05-17T01:31:39.501Z,8.50
2023-05-17T01:32:39.586Z,7.90
2023-05-17T01:33:39.554Z,8.20
2023-05-17T01:34:39.478Z,8.80
2023-05-17T01:35:39.455Z,8.70
2023-05-17T01:36:39.495Z,9.50
2023-05-17T01:37:39.439Z,9.80
2023-05-17T01:38:39.603Z,10.30
2023-05-17T01:39:39.407Z,8.80
2023-05-17T01:40:39.465Z,9.30
2023-05-17T01:41:39.382Z,8.20
2023-05-17T01:42:39.437Z,7.50
2023-05-17T01:43:39.411Z,8.80
2023-05-17T01:44:39.404Z,8.90
2023-05-17T01:45:39.364Z,8.20
2023-05-17T01:46:39.430Z,8.50
2023-05-17T01:47:39.384Z,7.80
2023-05-17T01:48:39.367Z,9.20
2023-05-17T01:49:39.681Z,8.40
2023-05-17T01:50:39.893Z,8.10
2023-05-17T01:51:39.287Z,10.20
2023-05-17T01:52:39.275Z,8.70
2023-05-17T01:53:39.291Z,10.80
2023-05-17T01:54:39.279Z,11.40
2023-05-17T01:55:39.313Z,10.80
2023-05-17T01:56:39.240Z,7.70
2023-05-17T01:57:39.205Z,9.00
2023-05-17T01:58:39.236Z,11.00
2023-05-17T01:59:39.225Z,9.40
2023-05-17T02:00:39.194Z,11.90
2023-05-17T02:01:39.176Z,8.90
2023-05-17T02:02:39.181Z,9.90
2023-05-17T02:03:39.175Z,12.20
2023-05-17T02:04:39.375Z,8.40
2023-05-17T02:05:39.701Z,10.40
2023-05-17T02:06:39.436Z,8.50
2023-05-17T02:07:39.538Z,10.10
2023-05-17T02:08:39.173Z,9.00
2023-05-17T02:09:39.884Z,7.90
2023-05-17T02:10:39.197Z,9.60
2023-05-17T02:11:39.086Z,9.10
2023-05-17T02:12:39.089Z,8.40
2023-05-17T02:13:39.135Z,6.40
2023-05-17T02:14:39.047Z,7.00
2023-05-17T02:15:39.031Z,9.00
2023-05-17T02:16:39.083Z,5.60
2023-05-17T02:17:39.019Z,7.60
2023-05-17T02:18:39.108Z,6.60
2023-05-17T02:19:38.978Z,8.80
2023-05-17T02:20:39.372Z,8.40
2023-05-17T02:21:38.931Z,10.60
2023-05-17T02:22:38.972Z,8.60
2023-05-17T02:23:38.920Z,8.20
2023-05-17T02:24:38.928Z,11.00
2023-05-17T02:25:38.890Z,8.40
2023-05-17T02:26:38.938Z,9.90
2023-05-17T02:27:39.614Z,8.70
2023-05-17T02:28:38.883Z,8.80
2023-05-17T02:29:38.854Z,9.60
2023-05-17T02:30:38.909Z,7.10
2023-05-17T02:31:38.939Z,7.90
2023-05-17T02:32:39.056Z,6.30
2023-05-17T02:33:38.928Z,8.90
2023-05-17T02:34:38.884Z,8.50
2023-05-17T02:35:38.807Z,8.20
2023-05-17T02:36:38.804Z,11.30
2023-05-17T02:37:38.794Z,10.10
2023-05-17T02:38:38.885Z,11.10
2023-05-17T02:39:38.743Z,9.90
2023-05-17T02:40:38.780Z,8.90
2023-05-17T02:41:38.725Z,10.50
2023-05-17T02:42:38.746Z,9.40
2023-05-17T02:43:38.729Z,9.50
2023-05-17T02:44:38.702Z,8.40
2023-05-17T02:45:38.923Z,8.60
2023-05-17T02:46:38.773Z,9.40
2023-05-17T02:47:38.769Z,9.10
2023-05-17T02:48:38.687Z,7.40
2023-05-17T02:49:38.682Z,9.90
2023-05-17T02:50:38.651Z,9.90
2023-05-17T02:51:38.778Z,8.20
2023-05-17T02:52:38.772Z,7.20
2023-05-17T02:53:38.591Z,8.90
2023-05-17T02:54:38.883Z,8.80
2023-05-17T02:55:38.612Z,7.60
2023-05-17T02:56:38.572Z,7.80
2023-05-17T02:57:38.547Z,8.60
2023-05-17T02:58:38.553Z,6.70
2023-05-17T02:59:38.533Z,7.60
2023-05-17T03:00:38.743Z,8.30
2023-05-17T03:01:38.499Z,7.90
2023-05-17T03:02:38.552Z,9.40
2023-05-17T03:03:38.837Z,10.00
2023-05-17T03:04:38.547Z,6.30
2023-05-17T03:05:38.473Z,10.80
2023-05-17T03:06:38.480Z,8.40
2023-05-17T03:07:38.434Z,7.10
2023-05-17T03:08:38.445Z,8.40
2023-05-17T03:09:38.445Z,6.90
2023-05-17T03:10:38.475Z,5.80
2023-05-17T03:11:38.675Z,7.30
2023-05-17T03:12:38.704Z,8.30
2023-05-17T03:13:38.406Z,8.70
2023-05-17T03:14:38.376Z,8.40
2023-05-17T03:15:38.349Z,10.00
2023-05-17T03:16:38.945Z,5.00
2023-05-17T03:17:38.704Z,5.90
2023-05-17T03:18:38.470Z,8.70
2023-05-17T03:19:38.398Z,8.50
2023-05-17T03:20:38.321Z,8.40
2023-05-17T03:21:39.134Z,6.40
2023-05-17T03:22:38.666Z,6.50
2023-05-17T03:23:38.331Z,10.20
2023-05-17T03:24:38.300Z,7.60
2023-05-17T03:25:38.235Z,8.20
2023-05-17T03:26:38.260Z,6.90
2023-05-17T03:27:38.310Z,8.30
2023-05-17T03:28:38.235Z,6.30
2023-05-17T03:29:38.231Z,9.50
2023-05-17T03:30:38.283Z,7.90
2023-05-17T03:31:38.194Z,9.10
2023-05-17T03:32:38.310Z,9.50
2023-05-17T03:33:38.256Z,8.80
2023-05-17T03:34:38.149Z,9.10
2023-05-17T03:35:38.201Z,7.80
2023-05-17T03:36:38.155Z,11.30
2023-05-17T03:37:38.099Z,10.50
2023-05-17T03:38:38.341Z,8.10
2023-05-17T03:39:38.118Z,8.50
2023-05-17T03:40:38.089Z,9.50
2023-05-17T03:41:38.056Z,7.80
2023-05-17T03:42:38.078Z,7.60
2023-05-17T03:43:38.046Z,8.60
2023-05-17T03:44:38.195Z,7.90
2023-05-17T03:45:37.995Z,8.70
2023-05-17T03:46:38.054Z,7.20
2023-05-17T03:47:38.138Z,7.00
2023-05-17T03:48:38.041Z,8.10
2023-05-17T03:49:38.219Z,9.30
2023-05-17T03:50:37.973Z,9.40
2023-05-17T03:51:37.960Z,9.80
2023-05-17T03:52:38.269Z,8.90
2023-05-17T03:53:38.250Z,7.00
2023-05-17T03:54:37.941Z,9.90
2023-05-17T03:55:38.278Z,8.70
2023-05-17T03:56:37.904Z,8.20
2023-05-17T03:57:37.859Z,7.60
2023-05-17T03:58:37.876Z,8.20
2023-05-17T03:59:37.870Z,10.90
2023-05-17T04:00:37.906Z,9.40
2023-05-17T04:01:37.892Z,6.50
2023-05-17T04:02:37.912Z,8.90
2023-05-17T04:03:37.920Z,14.20
2023-05-17T04:04:37.859Z,8.70
2023-05-17T04:05:37.772Z,10.00
2023-05-17T04:06:37.840Z,9.50
2023-05-17T04:07:38.064Z,7.30
2023-05-17T04:08:37.828Z,7.50
2023-05-17T04:09:37.762Z,7.70
2023-05-17T04:10:37.867Z,9.00
2023-05-17T04:11:37.709Z,8.50
2023-05-17T04:12:38.202Z,8.90
2023-05-17T04:13:38.009Z,7.70
2023-05-17T04:14:37.967Z,7.20
2023-05-17T04:15:37.998Z,8.10
2023-05-17T04:16:37.685Z,7.70
2023-05-17T04:17:37.775Z,9.00
2023-05-17T04:18:37.799Z,6.50
2023-05-17T04:19:37.667Z,6.80
2023-05-17T04:20:37.633Z,7.70
2023-05-17T04:21:37.622Z,7.30
2023-05-17T04:22:37.632Z,10.60
2023-05-17T04:23:37.581Z,9.00
2023-05-17T04:24:37.596Z,7.50
2023-05-17T04:25:37.558Z,6.90
2023-05-17T04:26:37.587Z,8.10
2023-05-17T04:27:37.533Z,6.90
2023-05-17T04:28:37.560Z,11.40
2023-05-17T04:29:37.608Z,5.70
2023-05-17T04:30:37.510Z,9.70
2023-05-17T04:31:37.484Z,9.50
2023-05-17T04:32:37.995Z,9.50
2023-05-17T04:33:38.136Z,10.70
2023-05-17T04:34:37.751Z,9.10
2023-05-17T04:35:37.442Z,8.30
2023-05-17T04:36:37.454Z,9.90
2023-05-17T04:37:37.434Z,6.70
2023-05-17T04:38:37.428Z,9.20
2023-05-17T04:39:37.551Z,6.20
2023-05-17T04:40:37.466Z,9.00
2023-05-17T04:41:37.464Z,8.90
2023-05-17T04:42:37.497Z,7.50
2023-05-17T04:43:37.606Z,7.20
2023-05-17T04:44:37.366Z,9.80
2023-05-17T04:45:37.386Z,6.80
2023-05-17T04:46:37.644Z,10.50
2023-05-17T04:47:37.767Z,7.60
2023-05-17T04:48:37.755Z,8.90
2023-05-17T04:49:37.677Z,8.20
2023-05-17T04:50:37.432Z,8.20
2023-05-17T04:51:37.687Z,8.70
2023-05-17T04:52:37.656Z,8.30
2023-05-17T04:53:37.337Z,10.30
2023-05-17T04:54:37.371Z,9.20
2023-05-17T04:55:37.369Z,10.50
2023-05-17T04:56:37.688Z,10.70
2023-05-17T04:57:37.300Z,10.70
2023-05-17T04:58:37.194Z,8.80
2023-05-17T04:59:37.203Z,8.40
2023-05-17T05:00:37.150Z,10.00
2023-05-17T05:01:37.224Z,10.80
2023-05-17T05:02:37.154Z,8.70
2023-05-17T05:03:37.204Z,10.00
2023-05-17T05:04:37.362Z,10.70
2023-05-17T05:05:37.146Z,11.30
2023-05-17T05:06:37.085Z,10.30
2023-05-17T05:07:37.650Z,13.00
2023-05-17T05:08:37.089Z,10.60
2023-05-17T05:09:37.055Z,11.70
2023-05-17T05:10:37.129Z,11.00
2023-05-17T05:11:37.047Z,8.90
2023-05-17T05:12:37.180Z,11.00
2023-05-17T05:13:37.208Z,13.20
2023-05-17T05:14:37.179Z,11.30
2023-05-17T05:15:37.021Z,8.10
2023-05-17T05:16:36.997Z,11.40
2023-05-17T05:17:37.120Z,9.20
2023-05-17T05:18:37.340Z,8.20
2023-05-17T05:19:37.153Z,10.70
2023-05-17T05:20:37.141Z,12.00
2023-05-17T05:21:36.972Z,10.60
2023-05-17T05:22:37.252Z,10.30
2023-05-17T05:23:37.241Z,9.50
2023-05-17T05:24:37.820Z,11.40
2023-05-17T05:25:37.377Z,8.10
2023-05-17T05:26:36.851Z,9.50
2023-05-17T05:27:36.872Z,12.70
2023-05-17T05:28:36.851Z,13.30
2023-05-17T05:29:36.877Z,9.70
2023-05-17T05:30:36.806Z,12.50
2023-05-17T05:31:36.802Z,10.40
2023-05-17T05:32:36.891Z,9.70
2023-05-17T05:33:36.903Z,12.90
2023-05-17T05:34:37.015Z,8.70
2023-05-17T05:35:37.025Z,12.30
2023-05-17T05:36:36.726Z,12.20
2023-05-17T05:37:36.753Z,11.50
2023-05-17T05:38:36.776Z,10.10
2023-05-17T05:39:36.942Z,10.70
2023-05-17T05:40:37.044Z,11.30
2023-05-17T05:41:36.723Z,12.90
2023-05-17T05:42:36.667Z,9.30
2023-05-17T05:43:36.665Z,11.10
2023-05-17T05:44:36.674Z,9.50
2023-05-17T05:45:36.901Z,10.80
2023-05-17T05:46:36.646Z,9.30
2023-05-17T05:47:36.695Z,10.20
2023-05-17T05:48:36.662Z,9.60
2023-05-17T05:49:36.605Z,8.10
2023-05-17T05:50:36.591Z,10.40
2023-05-17T05:51:36.733Z,12.20
2023-05-17T05:52:36.604Z,12.50
2023-05-17T05:53:36.574Z,11.20
2023-05-17T05:54:36.676Z,11.40
2023-05-17T05:55:36.662Z,11.60
2023-05-17T05:56:36.750Z,10.10
2023-05-17T05:57:36.519Z,13.40
2023-05-17T05:58:36.522Z,10.70
2023-05-17T05:59:36.514Z,9.60
2023-05-17T06:00:36.480Z,10.30
2023-05-17T06:01:36.486Z,13.90
2023-05-17T06:02:36.767Z,11.90
2023-05-17T06:03:36.461Z,8.60
2023-05-17T06:04:44.491Z,10.90
2023-05-17T06:05:38.254Z,11.60
2023-05-17T06:06:36.746Z,11.40
2023-05-17T06:07:36.623Z,12.80
2023-05-17T06:08:36.663Z,9.60
2023-05-17T06:09:36.387Z,10.90
2023-05-17T06:10:36.384Z,10.80
2023-05-17T06:11:36.376Z,13.70
2023-05-17T06:12:36.352Z,11.50
2023-05-17T06:13:36.700Z,13.40
2023-05-17T06:14:36.305Z,14.60
2023-05-17T06:15:37.003Z,12.30
2023-05-17T06:16:36.379Z,11.80
2023-05-17T06:17:36.361Z,11.30
2023-05-17T06:18:37.190Z,10.90
2023-05-17T06:19:36.872Z,11.00
2023-05-17T06:20:36.481Z,9.50
2023-05-17T06:21:36.253Z,11.80
2023-05-17T06:22:36.224Z,11.10
2023-05-17T06:23:36.268Z,13.60
2023-05-17T06:24:36.334Z,13.10
2023-05-17T06:25:36.221Z,13.10
2023-05-17T06:26:36.256Z,11.80
2023-05-17T06:27:36.459Z,13.40
2023-05-17T06:28:37.053Z,12.10
2023-05-17T06:29:37.558Z,10.50
2023-05-17T06:30:36.583Z,13.80
2023-05-17T06:31:36.197Z,11.60
2023-05-17T06:32:36.227Z,13.30
2023-05-17T06:33:36.188Z,11.20
2023-05-17T06:34:36.084Z,15.70
2023-05-17T06:35:51.711Z,10.40
2023-05-17T06:36:38.713Z,9.00
2023-05-17T06:37:36.328Z,11.80
2023-05-17T06:38:36.042Z,10.30
2023-05-17T06:39:36.070Z,11.30
2023-05-17T06:40:36.333Z,12.60
2023-05-17T06:41:36.019Z,11.50
2023-05-17T06:42:35.977Z,10.70
2023-05-17T06:43:37.794Z,11.40
2023-05-17T06:44:36.279Z,13.80
2023-05-17T06:45:36.007Z,16.10
2023-05-17T06:46:36.704Z,10.90
2023-05-17T06:47:36.056Z,12.40
2023-05-17T06:48:35.989Z,13.70
2023-05-17T06:49:35.932Z,9.10
2023-05-17T06:50:35.889Z,11.50
2023-05-17T06:51:36.027Z,9.40
2023-05-17T06:52:35.899Z,11.10
2023-05-17T06:53:35.901Z,14.00
2023-05-17T06:54:35.838Z,13.20
2023-05-17T06:55:36.360Z,9.60
2023-05-17T06:56:36.346Z,8.40
2023-05-17T06:57:35.859Z,7.50
2023-05-17T06:58:35.836Z,4.90
2023-05-17T06:59:35.846Z,7.30
2023-05-17T07:00:35.762Z,7.40
2023-05-17T07:01:35.785Z,8.10
2023-05-17T07:02:36.176Z,6.90
2023-05-17T07:03:35.923Z,9.50
2023-05-17T07:04:35.758Z,7.80
2023-05-17T07:05:36.252Z,14.50
2023-05-17T07:06:36.212Z,8.10
2023-05-17T07:07:35.732Z,9.90
2023-05-17T07:08:35.713Z,6.90
2023-05-17T07:09:35.768Z,7.50
2023-05-17T07:10:35.672Z,6.60
2023-05-17T07:11:35.686Z,8.90
2023-05-17T07:12:39.786Z,6.20
2023-05-17T07:13:35.988Z,7.40
2023-05-17T07:14:35.614Z,5.10
2023-05-17T07:15:35.648Z,5.50
2023-05-17T07:16:35.678Z,6.50
2023-05-17T07:17:35.747Z,9.00
2023-05-17T07:18:35.744Z,8.50
2023-05-17T07:19:35.885Z,7.30
2023-05-17T07:20:36.515Z,6.40
2023-05-17T07:21:35.576Z,6.00
2023-05-17T07:22:35.563Z,5.70
2023-05-17T07:23:35.579Z,6.40
2023-05-17T07:24:36.071Z,7.90
2023-05-17T07:25:35.519Z,8.40
2023-05-17T07:26:35.589Z,5.90
2023-05-17T07:27:35.508Z,7.10
2023-05-17T07:28:35.532Z,6.00
2023-05-17T07:29:35.468Z,7.90
2023-05-17T07:30:35.744Z,7.40
2023-05-17T07:31:35.524Z,7.40
2023-05-17T07:32:35.487Z,7.60
2023-05-17T07:33:35.452Z,7.40
2023-05-17T07:34:35.600Z,8.40
2023-05-17T07:35:35.535Z,7.70
2023-05-17T07:36:35.491Z,5.90
2023-05-17T07:37:35.625Z,6.80
2023-05-17T07:38:35.620Z,6.00
2023-05-17T07:39:35.385Z,5.10
2023-05-17T07:40:35.321Z,7.90
2023-05-17T07:41:35.667Z,7.00
2023-05-17T07:42:35.307Z,8.20
2023-05-17T07:43:35.314Z,5.60
2023-05-17T07:44:35.298Z,5.80
2023-05-17T07:45:35.290Z,6.50
2023-05-17T07:46:35.400Z,4.00
2023-05-17T07:47:35.375Z,6.10
2023-05-17T07:48:35.536Z,5.90
2023-05-17T07:49:35.535Z,6.60
2023-05-17T07:50:35.255Z,7.80
2023-05-17T07:51:35.508Z,6.30
2023-05-17T07:52:35.309Z,10.50
2023-05-17T07:53:35.239Z,9.90
2023-05-17T07:54:35.156Z,8.20
2023-05-17T07:55:35.178Z,6.30
2023-05-17T07:56:35.152Z,8.80
2023-05-17T07:57:35.574Z,9.50
2023-05-17T07:58:35.424Z,7.20
2023-05-17T07:59:35.384Z,8.20
2023-05-17T08:00:35.680Z,7.90
2023-05-17T08:01:35.140Z,8.10
2023-05-17T08:02:35.121Z,8.60
2023-05-17T08:03:35.705Z,9.20
2023-05-17T08:04:35.129Z,10.50
2023-05-17T08:05:35.967Z,7.20
2023-05-17T08:06:35.881Z,11.00
2023-05-17T08:07:35.943Z,9.70
2023-05-17T08:08:35.021Z,8.30
2023-05-17T08:09:35.073Z,7.10
2023-05-17T08:10:35.162Z,6.20
2023-05-17T08:11:35.385Z,9.00
2023-05-17T08:12:35.152Z,9.10
2023-05-17T08:13:35.283Z,9.30
2023-05-17T08:14:35.267Z,8.60
2023-05-17T08:15:34.966Z,7.10
2023-05-17T08:16:35.368Z,7.70
2023-05-17T08:17:35.263Z,5.80
2023-05-17T08:18:35.610Z,5.70
2023-05-17T08:19:35.458Z,7.90
2023-05-17T08:20:35.506Z,6.40
2023-05-17T08:21:35.622Z,8.50
2023-05-17T08:22:35.660Z,11.00
2023-05-17T08:23:35.241Z,10.60
2023-05-17T08:24:34.912Z,8.70
2023-05-17T08:25:34.950Z,8.10
2023-05-17T08:26:34.822Z,6.00
2023-05-17T08:27:34.911Z,9.00
2023-05-17T08:28:34.947Z,9.80
2023-05-17T08:29:36.052Z,6.90
2023-05-17T08:30:34.782Z,5.30
2023-05-17T08:31:35.064Z,8.10
2023-05-17T08:32:35.193Z,9.10
2023-05-17T08:33:35.315Z,9.20
2023-05-17T08:34:35.174Z,10.60
2023-05-17T08:35:35.197Z,9.50
2023-05-17T08:36:34.733Z,6.90
2023-05-17T08:37:35.326Z,8.40
2023-05-17T08:38:35.345Z,9.70
2023-05-17T08:39:35.241Z,7.10
2023-05-17T08:40:35.298Z,7.40
2023-05-17T08:41:35.621Z,6.10
2023-05-17T08:42:34.830Z,9.00
2023-05-17T08:43:35.564Z,7.00
2023-05-17T08:44:34.671Z,7.60
2023-05-17T08:45:34.648Z,8.70
2023-05-17T08:46:34.577Z,9.90
2023-05-17T08:47:34.839Z,7.20
2023-05-17T08:48:34.572Z,7.00
2023-05-17T08:49:34.886Z,6.80
2023-05-17T08:50:34.601Z,10.00
2023-05-17T08:51:34.592Z,8.00
2023-05-17T08:52:34.646Z,10.00
2023-05-17T08:53:34.553Z,8.50
2023-05-17T08:54:34.609Z,9.20
2023-05-17T08:55:34.619Z,9.10
2023-05-17T08:56:34.636Z,10.20
2023-05-17T08:57:34.646Z,9.80
2023-05-17T08:58:48.179Z,9.50
2023-05-17T08:59:36.379Z,6.60
2023-05-17T09:00:34.442Z,6.60
2023-05-17T09:01:34.574Z,7.70
2023-05-17T09:02:34.470Z,6.20
2023-05-17T09:03:34.570Z,10.10
2023-05-17T09:04:34.412Z,8.30
2023-05-17T09:05:34.452Z,8.70
2023-05-17T09:06:34.495Z,7.00
2023-05-17T09:07:34.619Z,8.40
2023-05-17T09:08:34.695Z,7.90
2023-05-17T09:09:34.650Z,5.60
2023-05-17T09:10:34.306Z,7.50
2023-05-17T09:11:34.363Z,7.20
2023-05-17T09:12:34.324Z,5.00
2023-05-17T09:13:34.303Z,7.10
2023-05-17T09:14:34.352Z,6.10
2023-05-17T09:15:34.343Z,7.60
2023-05-17T09:16:34.348Z,7.20
2023-05-17T09:17:34.399Z,7.50
2023-05-17T09:18:34.457Z,6.90
2023-05-17T09:19:34.501Z,6.80
2023-05-17T09:20:34.382Z,6.20
2023-05-17T09:21:34.494Z,8.40
2023-05-17T09:22:34.309Z,8.00
2023-05-17T09:23:34.183Z,6.70
2023-05-17T09:24:34.197Z,6.70
2023-05-17T09:25:34.438Z,7.90
2023-05-17T09:26:34.147Z,7.90
2023-05-17T09:27:34.115Z,7.40
2023-05-17T09:28:34.383Z,6.70
2023-05-17T09:29:34.103Z,6.20
2023-05-17T09:30:34.162Z,9.20
2023-05-17T09:31:34.188Z,6.20
2023-05-17T09:32:34.215Z,5.80
2023-05-17T09:33:34.093Z,7.30
2023-05-17T09:34:34.088Z,8.10
2023-05-17T09:35:34.023Z,8.40
2023-05-17T09:36:34.062Z,6.80
2023-05-17T09:37:34.013Z,7.00
2023-05-17T09:38:34.052Z,7.00
2023-05-17T09:39:34.095Z,9.50
2023-05-17T09:40:34.135Z,9.30
2023-05-17T09:41:34.122Z,9.10
2023-05-17T09:42:34.272Z,7.70
2023-05-17T09:43:34.237Z,10.40
2023-05-17T09:44:33.944Z,6.20
2023-05-17T09:45:34.245Z,7.10
2023-05-17T09:46:33.958Z,8.60
2023-05-17T09:47:34.358Z,7.60
2023-05-17T09:48:34.037Z,6.20
2023-05-17T09:49:34.305Z,9.20
2023-05-17T09:50:34.316Z,10.80
2023-05-17T09:51:34.399Z,10.50
2023-05-17T09:52:34.409Z,6.00
2023-05-17T09:53:34.318Z,9.60
2023-05-17T09:54:34.333Z,8.40
2023-05-17T09:55:33.832Z,8.40
2023-05-17T09:56:33.828Z,7.70
2023-05-17T09:57:33.915Z,7.40
2023-05-17T09:58:33.966Z,8.60
2023-05-17T09:59:33.941Z,8.10
2023-05-17T10:00:34.067Z,9.80
2023-05-17T10:01:33.756Z,6.30
2023-05-17T10:02:34.057Z,5.90
2023-05-17T10:03:34.336Z,7.60
2023-05-17T10:04:34.482Z,6.70
2023-05-17T10:05:34.272Z,8.30
2023-05-17T10:06:45.172Z,5.60
2023-05-17T10:07:35.240Z,6.00
2023-05-17T10:08:34.337Z,8.00
2023-05-17T10:09:33.730Z,8.90
2023-05-17T10:10:34.346Z,7.90
2023-05-17T10:11:33.613Z,7.60
2023-05-17T10:12:33.745Z,5.20
2023-05-17T10:13:33.631Z,5.30
2023-05-17T10:14:33.696Z,7.20
2023-05-17T10:15:33.681Z,6.30
2023-05-17T10:16:33.764Z,7.00
2023-05-17T10:17:33.599Z,8.60
2023-05-17T10:18:33.706Z,7.30
2023-05-17T10:19:33.618Z,5.10
2023-05-17T10:20:33.599Z,8.90
2023-05-17T10:21:33.574Z,7.70
2023-05-17T10:22:33.699Z,5.90
2023-05-17T10:23:33.485Z,5.40
2023-05-17T10:24:33.496Z,5.70
2023-05-17T10:25:33.724Z,6.50
2023-05-17T10:26:33.630Z,4.90
2023-05-17T10:27:33.456Z,5.70
2023-05-17T10:28:33.449Z,7.60
2023-05-17T10:29:33.773Z,5.10
2023-05-17T10:30:33.770Z,6.00
2023-05-17T10:31:33.472Z,5.90
2023-05-17T10:32:33.410Z,5.70
2023-05-17T10:33:33.459Z,7.40
2023-05-17T10:34:33.404Z,5.80
2023-05-17T10:35:33.349Z,6.80
2023-05-17T10:36:33.402Z,8.00
2023-05-17T10:37:33.302Z,8.50
2023-05-17T10:38:41.800Z,6.50
2023-05-17T10:39:34.361Z,6.10
2023-05-17T10:40:33.314Z,7.20
2023-05-17T10:41:33.292Z,5.30
2023-05-17T10:42:33.278Z,5.60
2023-05-17T10:43:33.260Z,5.90
2023-05-17T10:44:33.255Z,5.50
2023-05-17T10:45:33.238Z,5.60
2023-05-17T10:46:33.230Z,6.40
2023-05-17T10:47:33.245Z,5.50
2023-05-17T10:48:33.257Z,3.40
2023-05-17T10:49:33.232Z,6.90
2023-05-17T10:50:33.214Z,5.10
2023-05-17T10:51:33.167Z,6.20
2023-05-17T10:52:33.184Z,7.10
2023-05-17T10:53:33.397Z,5.30
2023-05-17T10:54:33.143Z,5.00
2023-05-17T10:55:33.099Z,6.80
2023-05-17T10:56:33.129Z,7.90
2023-05-17T10:57:39.084Z,5.50
2023-05-17T10:58:34.353Z,8.20
2023-05-17T10:59:33.090Z,6.70
2023-05-17T11:00:33.653Z,5.90
2023-05-17T11:01:33.040Z,5.60
2023-05-17T11:02:40.473Z,6.90
2023-05-17T11:03:33.033Z,6.60
2023-05-17T11:04:35.912Z,5.20
2023-05-17T11:05:33.298Z,7.30
2023-05-17T11:06:33.034Z,6.50
2023-05-17T11:07:33.041Z,6.10
2023-05-17T11:08:33.133Z,6.20
2023-05-17T11:09:33.083Z,5.90
2023-05-17T11:10:33.111Z,7.60
2023-05-17T11:11:33.207Z,7.80
2023-05-17T11:12:33.998Z,6.10
2023-05-17T11:13:33.216Z,8.70
2023-05-17T11:14:33.199Z,7.10
2023-05-17T11:15:33.259Z,4.90
2023-05-17T11:16:32.889Z,7.20
2023-05-17T11:17:32.951Z,5.00
2023-05-17T11:18:36.344Z,8.70
2023-05-17T11:19:34.381Z,5.80
2023-05-17T11:20:33.872Z,4.30
2023-05-17T11:21:33.276Z,7.00
2023-05-17T11:22:33.299Z,5.60
2023-05-17T11:23:33.395Z,7.00
2023-05-17T11:24:32.810Z,5.50
2023-05-17T11:25:32.858Z,5.80
2023-05-17T11:26:32.819Z,5.70
2023-05-17T11:27:33.147Z,6.10
2023-05-17T11:28:32.755Z,7.10
2023-05-17T11:29:32.705Z,8.80
2023-05-17T11:30:32.824Z,7.90
2023-05-17T11:31:33.112Z,6.20
2023-05-17T11:32:32.749Z,9.70
2023-05-17T11:33:34.071Z,8.30
2023-05-17T11:34:32.732Z,6.60
2023-05-17T11:35:33.181Z,5.50
2023-05-17T11:36:32.642Z,5.30
2023-05-17T11:37:32.677Z,7.80
2023-05-17T11:38:32.677Z,5.70
2023-05-17T11:39:33.196Z,5.40
2023-05-17T11:40:33.456Z,5.90
2023-05-17T11:41:32.562Z,6.30
2023-05-17T11:42:32.648Z,8.20
2023-05-17T11:43:32.673Z,4.80
2023-05-17T11:44:32.692Z,4.70
2023-05-17T11:45:32.579Z,6.10
2023-05-17T11:46:32.544Z,5.60
2023-05-17T11:47:32.628Z,5.00
2023-05-17T11:48:32.802Z,6.90
2023-05-17T11:49:35.683Z,4.60
2023-05-17T11:50:32.566Z,5.50
2023-05-17T11:51:32.457Z,5.40
2023-05-17T11:52:32.563Z,5.20
2023-05-17T11:53:32.426Z,7.50
2023-05-17T11:54:32.454Z,4.60
2023-05-17T11:55:32.406Z,5.20
2023-05-17T11:56:42.241Z,5.90
2023-05-17T11:57:33.396Z,6.00
2023-05-17T11:58:32.423Z,5.60
2023-05-17T11:59:32.368Z,5.50
2023-05-17T12:00:32.365Z,5.80
2023-05-17T12:01:32.348Z,5.50
2023-05-17T12:02:32.389Z,7.00
2023-05-17T12:03:32.327Z,7.80
2023-05-17T12:04:33.283Z,6.40
2023-05-17T12:05:32.351Z,3.80
2023-05-17T12:06:32.436Z,5.60
2023-05-17T12:07:32.312Z,5.30
2023-05-17T12:08:32.437Z,6.10
2023-05-17T12:09:32.267Z,5.90
2023-05-17T12:10:34.669Z,7.60
2023-05-17T12:11:32.234Z,6.00
2023-05-17T12:12:32.299Z,5.80
2023-05-17T12:13:32.289Z,6.70
2023-05-17T12:14:32.232Z,4.60
2023-05-17T12:15:32.338Z,4.70
2023-05-17T12:16:32.234Z,6.70
2023-05-17T12:17:32.390Z,7.20
2023-05-17T12:18:32.305Z,6.40
2023-05-17T12:19:32.195Z,5.90
2023-05-17T12:20:32.408Z,6.50
2023-05-17T12:21:32.292Z,5.60
2023-05-17T12:22:32.118Z,5.00
2023-05-17T12:23:32.287Z,5.80
2023-05-17T12:24:32.537Z,5.70
2023-05-17T12:25:32.146Z,6.60
2023-05-17T12:26:32.405Z,5.90
2023-05-17T12:27:32.042Z,6.40
2023-05-17T12:28:32.090Z,7.20
2023-05-17T12:29:32.142Z,6.50
2023-05-17T12:30:32.074Z,7.10
2023-05-17T12:31:32.058Z,6.10
2023-05-17T12:32:32.267Z,7.40
2023-05-17T12:33:32.167Z,7.30
2023-05-17T12:34:32.018Z,5.80
2023-05-17T12:35:31.979Z,5.50
2023-05-17T12:36:31.977Z,7.50
2023-05-17T12:37:32.049Z,6.30
2023-05-17T12:38:31.967Z,5.30
2023-05-17T12:39:31.918Z,6.30
2023-05-17T12:40:32.012Z,5.50
2023-05-17T12:41:32.056Z,7.20
2023-05-17T12:42:32.250Z,6.50
2023-05-17T12:43:32.305Z,6.30
2023-05-17T12:44:32.147Z,5.70
2023-05-17T12:45:32.135Z,3.80
2023-05-17T12:46:31.858Z,7.20
2023-05-17T12:47:31.840Z,5.90
2023-05-17T12:48:31.878Z,12.30
2023-05-17T12:49:31.799Z,7.10
2023-05-17T12:50:31.870Z,5.30
2023-05-17T12:51:32.001Z,7.50
2023-05-17T12:52:31.773Z,6.20
2023-05-17T12:53:31.761Z,4.20
2023-05-17T12:54:31.788Z,5.90
2023-05-17T12:55:31.801Z,5.70
2023-05-17T12:56:31.727Z,5.40
2023-05-17T12:57:31.687Z,6.50
2023-05-17T12:58:31.730Z,7.10
2023-05-17T12:59:31.961Z,7.00
2023-05-17T13:00:31.887Z,8.60
2023-05-17T13:01:31.650Z,7.20
2023-05-17T13:02:31.736Z,8.50
2023-05-17T13:03:32.463Z,5.60
2023-05-17T13:04:31.970Z,8.10
2023-05-17T13:05:32.297Z,5.30
2023-05-17T13:06:31.662Z,8.80
2023-05-17T13:07:31.609Z,7.20
2023-05-17T13:08:31.685Z,7.30
2023-05-17T13:09:31.584Z,8.60
2023-05-17T13:10:31.895Z,8.10
2023-05-17T13:11:31.574Z,6.80
2023-05-17T13:12:31.592Z,6.50
2023-05-17T13:13:31.576Z,7.20